sensor_id;sensor_type;location;lat;lon;timestamp;temperature;humidity
39777;DHT22;25453;48.162;14.510;2023-07-02T00:00:11;20.60;64.00
39777;DHT22;25453;48.162;14.510;2023-07-02T00:02:38;20.60;64.10
39777;DHT22;25453;48.162;14.510;2023-07-02T00:05:06;20.60;64.10
39777;DHT22;25453;48.162;14.510;2023-07-02T00:07:34;20.60;64.00
39777;DHT22;25453;48.162;14.510;2023-07-02T00:10:04;20.60;64.10
39777;DHT22;25453;48.162;14.510;2023-07-02T00:12:31;20.60;64.20
39777;DHT22;25453;48.162;14.510;2023-07-02T00:14:59;20.60;64.30
39777;DHT22;25453;48.162;14.510;2023-07-02T00:17:27;20.60;64.40
39777;DHT22;25453;48.162;14.510;2023-07-02T00:19:54;20.60;64.50
39777;DHT22;25453;48.162;14.510;2023-07-02T00:22:21;20.70;64.60
39777;DHT22;25453;48.162;14.510;2023-07-02T00:24:49;20.70;64.60
39777;DHT22;25453;48.162;14.510;2023-07-02T00:27:18;20.70;64.50
39777;DHT22;25453;48.162;14.510;2023-07-02T00:29:45;20.70;64.50
39777;DHT22;25453;48.162;14.510;2023-07-02T00:32:13;20.70;64.40
39777;DHT22;25453;48.162;14.510;2023-07-02T00:34:40;20.80;64.40
39777;DHT22;25453;48.162;14.510;2023-07-02T00:37:07;20.70;64.40
39777;DHT22;25453;48.162;14.510;2023-07-02T00:39:34;20.70;64.50
39777;DHT22;25453;48.162;14.510;2023-07-02T00:42:02;20.80;64.50
39777;DHT22;25453;48.162;14.510;2023-07-02T00:44:32;20.80;64.30
39777;DHT22;25453;48.162;14.510;2023-07-02T00:46:59;20.80;64.30
39777;DHT22;25453;48.162;14.510;2023-07-02T00:49:26;20.80;64.30
39777;DHT22;25453;48.162;14.510;2023-07-02T00:51:54;20.80;64.40
39777;DHT22;25453;48.162;14.510;2023-07-02T00:54:22;20.80;64.50
39777;DHT22;25453;48.162;14.510;2023-07-02T00:56:49;20.90;64.60
39777;DHT22;25453;48.162;14.510;2023-07-02T00:59:17;20.90;64.50
39777;DHT22;25453;48.162;14.510;2023-07-02T01:01:44;20.90;64.50
39777;DHT22;25453;48.162;14.510;2023-07-02T01:04:20;20.90;64.60
39777;DHT22;25453;48.162;14.510;2023-07-02T01:06:47;21.00;64.40
39777;DHT22;25453;48.162;14.510;2023-07-02T01:09:14;21.00;64.40
39777;DHT22;25453;48.162;14.510;2023-07-02T01:11:52;21.00;64.40
39777;DHT22;25453;48.162;14.510;2023-07-02T01:16:48;21.10;64.20
39777;DHT22;25453;48.162;14.510;2023-07-02T01:19:48;21.10;64.20
39777;DHT22;25453;48.162;14.510;2023-07-02T01:22:24;21.10;64.20
39777;DHT22;25453;48.162;14.510;2023-07-02T01:24:53;21.10;64.20
39777;DHT22;25453;48.162;14.510;2023-07-02T01:27:21;21.10;64.20
39777;DHT22;25453;48.162;14.510;2023-07-02T01:29:52;21.10;64.20
39777;DHT22;25453;48.162;14.510;2023-07-02T01:32:20;21.10;64.20
39777;DHT22;25453;48.162;14.510;2023-07-02T01:34:48;21.10;64.30
39777;DHT22;25453;48.162;14.510;2023-07-02T01:37:16;21.20;64.30
39777;DHT22;25453;48.162;14.510;2023-07-02T01:39:43;21.20;64.40
39777;DHT22;25453;48.162;14.510;2023-07-02T01:42:16;21.20;64.40
39777;DHT22;25453;48.162;14.510;2023-07-02T01:44:47;21.20;64.60
39777;DHT22;25453;48.162;14.510;2023-07-02T01:47:15;21.20;64.60
39777;DHT22;25453;48.162;14.510;2023-07-02T01:49:43;21.30;64.60
39777;DHT22;25453;48.162;14.510;2023-07-02T01:52:12;21.30;64.60
39777;DHT22;25453;48.162;14.510;2023-07-02T01:54:39;21.40;64.60
39777;DHT22;25453;48.162;14.510;2023-07-02T01:57:06;21.40;64.60
39777;DHT22;25453;48.162;14.510;2023-07-02T01:59:33;21.40;64.60
39777;DHT22;25453;48.162;14.510;2023-07-02T02:02:01;21.40;64.50
39777;DHT22;25453;48.162;14.510;2023-07-02T02:04:28;21.40;64.50
39777;DHT22;25453;48.162;14.510;2023-07-02T02:06:55;21.40;64.60
39777;DHT22;25453;48.162;14.510;2023-07-02T02:09:23;21.40;64.70
39777;DHT22;25453;48.162;14.510;2023-07-02T02:11:50;21.40;64.90
39777;DHT22;25453;48.162;14.510;2023-07-02T02:14:19;21.40;65.00
39777;DHT22;25453;48.162;14.510;2023-07-02T02:16:46;21.40;65.10
39777;DHT22;25453;48.162;14.510;2023-07-02T02:19:14;21.40;65.30
39777;DHT22;25453;48.162;14.510;2023-07-02T02:21:42;21.40;65.40
39777;DHT22;25453;48.162;14.510;2023-07-02T02:24:10;21.40;65.50
39777;DHT22;25453;48.162;14.510;2023-07-02T02:26:38;21.40;65.50
39777;DHT22;25453;48.162;14.510;2023-07-02T02:29:05;21.40;65.60
39777;DHT22;25453;48.162;14.510;2023-07-02T02:31:32;21.50;65.60
39777;DHT22;25453;48.162;14.510;2023-07-02T02:33:59;21.40;65.60
39777;DHT22;25453;48.162;14.510;2023-07-02T02:36:26;21.40;65.60
39777;DHT22;25453;48.162;14.510;2023-07-02T02:38:53;21.40;65.70
39777;DHT22;25453;48.162;14.510;2023-07-02T02:41:21;21.40;65.90
39777;DHT22;25453;48.162;14.510;2023-07-02T02:43:48;21.30;66.10
39777;DHT22;25453;48.162;14.510;2023-07-02T02:46:20;21.30;66.20
39777;DHT22;25453;48.162;14.510;2023-07-02T02:48:49;21.30;66.40
39777;DHT22;25453;48.162;14.510;2023-07-02T02:51:17;21.30;66.50
39777;DHT22;25453;48.162;14.510;2023-07-02T02:53:45;21.30;66.60
39777;DHT22;25453;48.162;14.510;2023-07-02T02:56:13;21.30;66.70
39777;DHT22;25453;48.162;14.510;2023-07-02T02:58:40;21.30;66.80
39777;DHT22;25453;48.162;14.510;2023-07-02T03:01:08;21.30;66.90
39777;DHT22;25453;48.162;14.510;2023-07-02T03:03:39;21.30;67.10
39777;DHT22;25453;48.162;14.510;2023-07-02T03:06:07;21.30;67.10
39777;DHT22;25453;48.162;14.510;2023-07-02T03:08:34;21.30;67.20
39777;DHT22;25453;48.162;14.510;2023-07-02T03:11:02;21.30;67.30
39777;DHT22;25453;48.162;14.510;2023-07-02T03:13:29;21.30;67.40
39777;DHT22;25453;48.162;14.510;2023-07-02T03:15:56;21.30;67.40
39777;DHT22;25453;48.162;14.510;2023-07-02T03:18:23;21.30;67.50
39777;DHT22;25453;48.162;14.510;2023-07-02T03:20:50;21.30;67.60
39777;DHT22;25453;48.162;14.510;2023-07-02T03:23:17;21.30;67.70
39777;DHT22;25453;48.162;14.510;2023-07-02T03:25:44;21.40;67.70
39777;DHT22;25453;48.162;14.510;2023-07-02T03:28:11;21.40;67.80
39777;DHT22;25453;48.162;14.510;2023-07-02T03:30:39;21.40;67.80
39777;DHT22;25453;48.162;14.510;2023-07-02T03:33:07;21.40;67.80
39777;DHT22;25453;48.162;14.510;2023-07-02T03:35:35;21.40;67.80
39777;DHT22;25453;48.162;14.510;2023-07-02T03:38:04;21.30;68.00
39777;DHT22;25453;48.162;14.510;2023-07-02T03:40:32;21.30;68.00
39777;DHT22;25453;48.162;14.510;2023-07-02T03:42:59;21.30;68.10
39777;DHT22;25453;48.162;14.510;2023-07-02T03:45:26;21.30;68.20
39777;DHT22;25453;48.162;14.510;2023-07-02T03:47:53;21.30;68.40
39777;DHT22;25453;48.162;14.510;2023-07-02T03:50:20;21.30;68.60
39777;DHT22;25453;48.162;14.510;2023-07-02T03:52:48;21.30;68.80
39777;DHT22;25453;48.162;14.510;2023-07-02T03:55:15;21.20;69.10
39777;DHT22;25453;48.162;14.510;2023-07-02T03:57:42;21.20;69.30
39777;DHT22;25453;48.162;14.510;2023-07-02T04:00:09;21.20;69.60
39777;DHT22;25453;48.162;14.510;2023-07-02T04:02:38;21.10;69.80
39777;DHT22;25453;48.162;14.510;2023-07-02T04:05:05;21.10;70.10
39777;DHT22;25453;48.162;14.510;2023-07-02T04:07:33;21.20;70.40
39777;DHT22;25453;48.162;14.510;2023-07-02T04:10:00;21.20;70.60
39777;DHT22;25453;48.162;14.510;2023-07-02T04:12:27;21.20;70.60
39777;DHT22;25453;48.162;14.510;2023-07-02T04:14:55;21.20;70.80
39777;DHT22;25453;48.162;14.510;2023-07-02T04:17:22;21.20;70.90
39777;DHT22;25453;48.162;14.510;2023-07-02T04:19:49;21.20;70.90
39777;DHT22;25453;48.162;14.510;2023-07-02T04:22:16;21.20;71.10
39777;DHT22;25453;48.162;14.510;2023-07-02T04:24:45;21.20;71.10
39777;DHT22;25453;48.162;14.510;2023-07-02T04:27:17;21.20;71.30
39777;DHT22;25453;48.162;14.510;2023-07-02T04:30:05;21.30;71.40
39777;DHT22;25453;48.162;14.510;2023-07-02T04:32:36;21.30;71.40
39777;DHT22;25453;48.162;14.510;2023-07-02T04:35:03;21.30;71.40
39777;DHT22;25453;48.162;14.510;2023-07-02T04:37:30;21.30;71.30
39777;DHT22;25453;48.162;14.510;2023-07-02T04:39:58;21.40;71.30
39777;DHT22;25453;48.162;14.510;2023-07-02T04:42:26;21.40;71.30
39777;DHT22;25453;48.162;14.510;2023-07-02T04:44:54;21.40;71.20
39777;DHT22;25453;48.162;14.510;2023-07-02T04:47:22;21.40;71.10
39777;DHT22;25453;48.162;14.510;2023-07-02T04:49:49;21.40;71.00
39777;DHT22;25453;48.162;14.510;2023-07-02T04:52:16;21.40;70.90
39777;DHT22;25453;48.162;14.510;2023-07-02T04:54:44;21.40;70.90
39777;DHT22;25453;48.162;14.510;2023-07-02T04:57:11;21.40;70.90
39777;DHT22;25453;48.162;14.510;2023-07-02T04:59:41;21.40;71.00
39777;DHT22;25453;48.162;14.510;2023-07-02T05:02:09;21.40;71.00
39777;DHT22;25453;48.162;14.510;2023-07-02T05:04:36;21.40;71.00
39777;DHT22;25453;48.162;14.510;2023-07-02T05:07:06;21.40;70.80
39777;DHT22;25453;48.162;14.510;2023-07-02T05:09:33;21.50;70.80
39777;DHT22;25453;48.162;14.510;2023-07-02T05:12:01;21.50;70.70
39777;DHT22;25453;48.162;14.510;2023-07-02T05:14:28;21.50;70.70
39777;DHT22;25453;48.162;14.510;2023-07-02T05:16:55;21.50;70.50
39777;DHT22;25453;48.162;14.510;2023-07-02T05:19:22;21.50;70.50
39777;DHT22;25453;48.162;14.510;2023-07-02T05:21:49;21.60;70.50
39777;DHT22;25453;48.162;14.510;2023-07-02T05:24:16;21.60;70.30
39777;DHT22;25453;48.162;14.510;2023-07-02T05:26:43;21.60;70.20
39777;DHT22;25453;48.162;14.510;2023-07-02T05:29:10;21.60;70.20
39777;DHT22;25453;48.162;14.510;2023-07-02T05:31:37;21.60;70.10
39777;DHT22;25453;48.162;14.510;2023-07-02T05:34:05;21.70;70.00
39777;DHT22;25453;48.162;14.510;2023-07-02T05:36:32;21.70;69.90
39777;DHT22;25453;48.162;14.510;2023-07-02T05:39:01;21.70;69.90
39777;DHT22;25453;48.162;14.510;2023-07-02T05:41:28;21.70;69.90
39777;DHT22;25453;48.162;14.510;2023-07-02T05:43:58;21.70;69.80
39777;DHT22;25453;48.162;14.510;2023-07-02T05:46:26;21.80;69.80
39777;DHT22;25453;48.162;14.510;2023-07-02T05:48:53;21.80;69.70
39777;DHT22;25453;48.162;14.510;2023-07-02T05:51:24;21.80;69.60
39777;DHT22;25453;48.162;14.510;2023-07-02T05:53:52;21.80;69.60
39777;DHT22;25453;48.162;14.510;2023-07-02T05:56:19;21.80;69.50
39777;DHT22;25453;48.162;14.510;2023-07-02T05:58:46;21.80;69.50
39777;DHT22;25453;48.162;14.510;2023-07-02T06:01:14;21.80;69.40
39777;DHT22;25453;48.162;14.510;2023-07-02T06:03:42;21.80;69.50
39777;DHT22;25453;48.162;14.510;2023-07-02T06:06:12;21.80;69.40
39777;DHT22;25453;48.162;14.510;2023-07-02T06:08:39;21.80;69.30
39777;DHT22;25453;48.162;14.510;2023-07-02T06:11:07;21.90;69.30
39777;DHT22;25453;48.162;14.510;2023-07-02T06:13:34;21.90;69.20
39777;DHT22;25453;48.162;14.510;2023-07-02T06:16:01;22.00;69.10
39777;DHT22;25453;48.162;14.510;2023-07-02T06:18:28;22.10;69.00
39777;DHT22;25453;48.162;14.510;2023-07-02T06:20:56;22.10;68.90
39777;DHT22;25453;48.162;14.510;2023-07-02T06:23:23;22.20;68.80
39777;DHT22;25453;48.162;14.510;2023-07-02T06:25:50;22.20;68.50
39777;DHT22;25453;48.162;14.510;2023-07-02T06:28:26;22.20;68.40
39777;DHT22;25453;48.162;14.510;2023-07-02T06:30:54;22.20;68.30
39777;DHT22;25453;48.162;14.510;2023-07-02T06:33:21;22.20;68.30
39777;DHT22;25453;48.162;14.510;2023-07-02T06:35:49;22.20;68.20
39777;DHT22;25453;48.162;14.510;2023-07-02T06:38:16;22.10;68.10
39777;DHT22;25453;48.162;14.510;2023-07-02T06:40:43;22.10;68.20
39777;DHT22;25453;48.162;14.510;2023-07-02T06:43:11;22.10;68.10
39777;DHT22;25453;48.162;14.510;2023-07-02T06:45:38;22.10;68.20
39777;DHT22;25453;48.162;14.510;2023-07-02T06:48:05;22.00;68.40
39777;DHT22;25453;48.162;14.510;2023-07-02T06:50:32;22.00;68.40
39777;DHT22;25453;48.162;14.510;2023-07-02T06:52:59;21.90;68.50
39777;DHT22;25453;48.162;14.510;2023-07-02T06:55:26;21.90;68.80
39777;DHT22;25453;48.162;14.510;2023-07-02T06:57:54;21.80;69.20
39777;DHT22;25453;48.162;14.510;2023-07-02T07:00:21;21.80;69.50
39777;DHT22;25453;48.162;14.510;2023-07-02T07:02:48;21.70;69.80
39777;DHT22;25453;48.162;14.510;2023-07-02T07:05:15;21.70;70.00
39777;DHT22;25453;48.162;14.510;2023-07-02T07:07:42;21.70;70.30
39777;DHT22;25453;48.162;14.510;2023-07-02T07:10:10;21.60;70.40
39777;DHT22;25453;48.162;14.510;2023-07-02T07:12:37;21.60;70.70
39777;DHT22;25453;48.162;14.510;2023-07-02T07:15:05;21.60;70.90
39777;DHT22;25453;48.162;14.510;2023-07-02T07:17:32;21.70;71.10
39777;DHT22;25453;48.162;14.510;2023-07-02T07:19:59;21.70;71.20
39777;DHT22;25453;48.162;14.510;2023-07-02T07:22:26;21.80;71.10
39777;DHT22;25453;48.162;14.510;2023-07-02T07:24:53;21.80;70.90
39777;DHT22;25453;48.162;14.510;2023-07-02T07:27:21;21.90;70.90
39777;DHT22;25453;48.162;14.510;2023-07-02T07:29:48;21.90;70.80
39777;DHT22;25453;48.162;14.510;2023-07-02T07:32:15;21.90;70.70
39777;DHT22;25453;48.162;14.510;2023-07-02T07:34:43;21.90;70.70
39777;DHT22;25453;48.162;14.510;2023-07-02T07:37:10;22.00;70.60
39777;DHT22;25453;48.162;14.510;2023-07-02T07:39:38;22.00;70.70
39777;DHT22;25453;48.162;14.510;2023-07-02T07:42:06;22.00;70.70
39777;DHT22;25453;48.162;14.510;2023-07-02T07:44:33;21.90;70.70
39777;DHT22;25453;48.162;14.510;2023-07-02T07:47:00;21.90;70.90
39777;DHT22;25453;48.162;14.510;2023-07-02T07:49:28;21.80;71.20
39777;DHT22;25453;48.162;14.510;2023-07-02T07:51:55;21.90;71.50
39777;DHT22;25453;48.162;14.510;2023-07-02T07:54:22;21.90;71.80
39777;DHT22;25453;48.162;14.510;2023-07-02T07:56:49;21.90;71.60
39777;DHT22;25453;48.162;14.510;2023-07-02T07:59:17;21.90;71.60
39777;DHT22;25453;48.162;14.510;2023-07-02T08:01:44;21.90;71.40
39777;DHT22;25453;48.162;14.510;2023-07-02T08:04:13;21.90;71.30
39777;DHT22;25453;48.162;14.510;2023-07-02T08:06:40;21.90;70.90
39777;DHT22;25453;48.162;14.510;2023-07-02T08:09:11;21.90;70.60
39777;DHT22;25453;48.162;14.510;2023-07-02T08:11:38;21.80;70.70
39777;DHT22;25453;48.162;14.510;2023-07-02T08:14:05;21.80;70.60
39777;DHT22;25453;48.162;14.510;2023-07-02T08:16:32;21.80;70.40
39777;DHT22;25453;48.162;14.510;2023-07-02T08:19:00;21.80;70.20
39777;DHT22;25453;48.162;14.510;2023-07-02T08:21:28;21.70;69.60
39777;DHT22;25453;48.162;14.510;2023-07-02T08:23:55;21.70;69.40
39777;DHT22;25453;48.162;14.510;2023-07-02T08:26:24;21.70;69.30
39777;DHT22;25453;48.162;14.510;2023-07-02T08:28:51;21.80;69.20
39777;DHT22;25453;48.162;14.510;2023-07-02T08:31:18;21.80;69.10
39777;DHT22;25453;48.162;14.510;2023-07-02T08:33:46;21.90;68.80
39777;DHT22;25453;48.162;14.510;2023-07-02T08:36:13;21.90;67.70
39777;DHT22;25453;48.162;14.510;2023-07-02T08:38:43;21.80;67.20
39777;DHT22;25453;48.162;14.510;2023-07-02T08:41:10;21.80;66.80
39777;DHT22;25453;48.162;14.510;2023-07-02T08:43:37;21.80;66.40
39777;DHT22;25453;48.162;14.510;2023-07-02T08:46:05;21.80;66.10
39777;DHT22;25453;48.162;14.510;2023-07-02T08:48:36;21.90;65.80
39777;DHT22;25453;48.162;14.510;2023-07-02T08:51:04;22.00;65.00
39777;DHT22;25453;48.162;14.510;2023-07-02T08:53:32;22.00;64.30
39777;DHT22;25453;48.162;14.510;2023-07-02T08:56:03;22.00;64.10
39777;DHT22;25453;48.162;14.510;2023-07-02T08:58:30;22.00;63.80
39777;DHT22;25453;48.162;14.510;2023-07-02T09:01:08;22.00;63.60
39777;DHT22;25453;48.162;14.510;2023-07-02T09:03:37;22.00;63.30
39777;DHT22;25453;48.162;14.510;2023-07-02T09:06:05;22.00;63.10
39777;DHT22;25453;48.162;14.510;2023-07-02T09:08:33;22.00;63.00
39777;DHT22;25453;48.162;14.510;2023-07-02T09:11:09;22.00;62.80
39777;DHT22;25453;48.162;14.510;2023-07-02T09:13:49;22.00;62.80
39777;DHT22;25453;48.162;14.510;2023-07-02T09:18:59;22.30;62.30
39777;DHT22;25453;48.162;14.510;2023-07-02T09:21:49;22.40;62.10
39777;DHT22;25453;48.162;14.510;2023-07-02T09:24:16;22.50;62.10
39777;DHT22;25453;48.162;14.510;2023-07-02T09:29:12;22.70;61.30
39777;DHT22;25453;48.162;14.510;2023-07-02T09:31:46;22.70;61.20
39777;DHT22;25453;48.162;14.510;2023-07-02T09:34:35;22.80;61.00
39777;DHT22;25453;48.162;14.510;2023-07-02T09:37:04;22.80;61.10
39777;DHT22;25453;48.162;14.510;2023-07-02T09:39:35;22.90;61.10
39777;DHT22;25453;48.162;14.510;2023-07-02T09:42:06;23.00;60.50
39777;DHT22;25453;48.162;14.510;2023-07-02T09:44:35;23.00;60.30
39777;DHT22;25453;48.162;14.510;2023-07-02T09:47:08;23.10;60.20
39777;DHT22;25453;48.162;14.510;2023-07-02T09:49:38;23.10;59.50
39777;DHT22;25453;48.162;14.510;2023-07-02T09:52:10;23.10;59.10
39777;DHT22;25453;48.162;14.510;2023-07-02T09:54:38;23.00;59.10
39777;DHT22;25453;48.162;14.510;2023-07-02T09:57:06;23.00;58.90
39777;DHT22;25453;48.162;14.510;2023-07-02T09:59:35;23.00;59.10
39777;DHT22;25453;48.162;14.510;2023-07-02T10:02:02;22.90;59.10
39777;DHT22;25453;48.162;14.510;2023-07-02T10:04:43;23.00;58.80
39777;DHT22;25453;48.162;14.510;2023-07-02T10:07:11;22.90;58.70
39777;DHT22;25453;48.162;14.510;2023-07-02T10:09:41;22.90;58.50
39777;DHT22;25453;48.162;14.510;2023-07-02T10:12:21;22.90;58.10
39777;DHT22;25453;48.162;14.510;2023-07-02T10:14:51;22.80;58.00
39777;DHT22;25453;48.162;14.510;2023-07-02T10:20:00;22.70;58.00
39777;DHT22;25453;48.162;14.510;2023-07-02T10:22:28;22.60;57.80
39777;DHT22;25453;48.162;14.510;2023-07-02T10:24:56;22.50;57.80
39777;DHT22;25453;48.162;14.510;2023-07-02T10:27:38;22.50;57.90
39777;DHT22;25453;48.162;14.510;2023-07-02T10:30:08;22.40;58.00
39777;DHT22;25453;48.162;14.510;2023-07-02T10:32:36;22.30;58.10
39777;DHT22;25453;48.162;14.510;2023-07-02T10:35:15;22.20;58.20
39777;DHT22;25453;48.162;14.510;2023-07-02T10:37:43;22.20;58.50
39777;DHT22;25453;48.162;14.510;2023-07-02T10:40:11;22.20;58.70
39777;DHT22;25453;48.162;14.510;2023-07-02T10:42:50;22.20;58.90
39777;DHT22;25453;48.162;14.510;2023-07-02T10:45:19;22.20;58.90
39777;DHT22;25453;48.162;14.510;2023-07-02T10:47:47;22.20;59.00
39777;DHT22;25453;48.162;14.510;2023-07-02T10:50:21;22.20;59.20
39777;DHT22;25453;48.162;14.510;2023-07-02T10:52:50;22.20;59.60
39777;DHT22;25453;48.162;14.510;2023-07-02T10:55:18;22.10;59.70
39777;DHT22;25453;48.162;14.510;2023-07-02T10:57:46;22.10;59.90
39777;DHT22;25453;48.162;14.510;2023-07-02T11:00:14;22.10;60.20
39777;DHT22;25453;48.162;14.510;2023-07-02T11:02:41;22.10;60.50
39777;DHT22;25453;48.162;14.510;2023-07-02T11:05:09;22.20;60.80
39777;DHT22;25453;48.162;14.510;2023-07-02T11:07:44;22.20;60.90
39777;DHT22;25453;48.162;14.510;2023-07-02T11:10:18;22.20;61.20
39777;DHT22;25453;48.162;14.510;2023-07-02T11:12:46;22.20;61.30
39777;DHT22;25453;48.162;14.510;2023-07-02T11:15:14;22.10;61.50
39777;DHT22;25453;48.162;14.510;2023-07-02T11:17:41;22.10;61.80
39777;DHT22;25453;48.162;14.510;2023-07-02T11:20:11;22.10;61.80
39777;DHT22;25453;48.162;14.510;2023-07-02T11:22:38;22.00;61.80
39777;DHT22;25453;48.162;14.510;2023-07-02T11:25:24;22.00;62.10
39777;DHT22;25453;48.162;14.510;2023-07-02T11:28:02;22.00;62.30
39777;DHT22;25453;48.162;14.510;2023-07-02T11:30:30;22.00;62.50
39777;DHT22;25453;48.162;14.510;2023-07-02T11:32:57;22.00;62.30
39777;DHT22;25453;48.162;14.510;2023-07-02T11:35:34;22.10;62.30
39777;DHT22;25453;48.162;14.510;2023-07-02T11:38:02;22.10;62.20
39777;DHT22;25453;48.162;14.510;2023-07-02T11:40:29;22.20;62.10
39777;DHT22;25453;48.162;14.510;2023-07-02T11:42:57;22.20;61.90
39777;DHT22;25453;48.162;14.510;2023-07-02T11:45:24;22.20;61.70
39777;DHT22;25453;48.162;14.510;2023-07-02T11:47:51;22.20;61.80
39777;DHT22;25453;48.162;14.510;2023-07-02T11:50:18;22.20;61.90
39777;DHT22;25453;48.162;14.510;2023-07-02T11:52:53;22.20;61.80
39777;DHT22;25453;48.162;14.510;2023-07-02T11:55:21;22.30;61.70
39777;DHT22;25453;48.162;14.510;2023-07-02T11:57:48;22.30;61.70
39777;DHT22;25453;48.162;14.510;2023-07-02T12:00:17;22.40;61.60
39777;DHT22;25453;48.162;14.510;2023-07-02T12:02:44;22.40;61.20
39777;DHT22;25453;48.162;14.510;2023-07-02T12:05:11;22.40;61.10
39777;DHT22;25453;48.162;14.510;2023-07-02T12:07:39;22.30;61.00
39777;DHT22;25453;48.162;14.510;2023-07-02T12:10:07;22.30;60.90
39777;DHT22;25453;48.162;14.510;2023-07-02T12:12:34;22.20;60.90
39777;DHT22;25453;48.162;14.510;2023-07-02T12:15:02;22.10;60.90
39777;DHT22;25453;48.162;14.510;2023-07-02T12:17:29;22.10;60.90
39777;DHT22;25453;48.162;14.510;2023-07-02T12:19:57;22.00;61.00
39777;DHT22;25453;48.162;14.510;2023-07-02T12:22:24;22.00;61.00
39777;DHT22;25453;48.162;14.510;2023-07-02T12:24:51;21.90;61.00
39777;DHT22;25453;48.162;14.510;2023-07-02T12:27:22;21.90;61.10
39777;DHT22;25453;48.162;14.510;2023-07-02T12:29:49;21.90;61.10
39777;DHT22;25453;48.162;14.510;2023-07-02T12:32:17;22.00;61.10
39777;DHT22;25453;48.162;14.510;2023-07-02T12:34:44;22.00;61.30
39777;DHT22;25453;48.162;14.510;2023-07-02T12:37:11;22.10;61.30
39777;DHT22;25453;48.162;14.510;2023-07-02T12:39:40;22.30;61.50
39777;DHT22;25453;48.162;14.510;2023-07-02T12:42:07;22.50;61.30
39777;DHT22;25453;48.162;14.510;2023-07-02T12:44:35;22.70;60.90
39777;DHT22;25453;48.162;14.510;2023-07-02T12:47:02;22.80;60.60
39777;DHT22;25453;48.162;14.510;2023-07-02T12:49:29;22.90;60.20
39777;DHT22;25453;48.162;14.510;2023-07-02T12:51:56;22.90;60.00
39777;DHT22;25453;48.162;14.510;2023-07-02T12:54:23;23.00;59.90
39777;DHT22;25453;48.162;14.510;2023-07-02T12:56:50;23.00;59.80
39777;DHT22;25453;48.162;14.510;2023-07-02T12:59:17;23.00;59.60
39777;DHT22;25453;48.162;14.510;2023-07-02T13:01:45;22.90;59.70
39777;DHT22;25453;48.162;14.510;2023-07-02T13:04:12;22.90;59.70
39777;DHT22;25453;48.162;14.510;2023-07-02T13:06:41;22.90;59.70
39777;DHT22;25453;48.162;14.510;2023-07-02T13:09:09;22.80;59.90
39777;DHT22;25453;48.162;14.510;2023-07-02T13:11:36;22.80;59.90
39777;DHT22;25453;48.162;14.510;2023-07-02T13:14:05;22.70;60.20
39777;DHT22;25453;48.162;14.510;2023-07-02T13:16:32;22.60;60.40
39777;DHT22;25453;48.162;14.510;2023-07-02T13:18:59;22.60;60.60
39777;DHT22;25453;48.162;14.510;2023-07-02T13:21:29;22.60;60.80
39777;DHT22;25453;48.162;14.510;2023-07-02T13:23:56;22.70;60.80
39777;DHT22;25453;48.162;14.510;2023-07-02T13:26:23;22.70;60.70
39777;DHT22;25453;48.162;14.510;2023-07-02T13:28:50;22.70;60.70
39777;DHT22;25453;48.162;14.510;2023-07-02T13:31:17;22.70;60.80
39777;DHT22;25453;48.162;14.510;2023-07-02T13:33:44;22.70;60.90
39777;DHT22;25453;48.162;14.510;2023-07-02T13:36:13;22.80;60.80
39777;DHT22;25453;48.162;14.510;2023-07-02T13:38:40;22.80;60.80
39777;DHT22;25453;48.162;14.510;2023-07-02T13:41:08;22.90;60.70
39777;DHT22;25453;48.162;14.510;2023-07-02T13:43:35;23.00;60.30
39777;DHT22;25453;48.162;14.510;2023-07-02T13:46:02;23.10;60.30
39777;DHT22;25453;48.162;14.510;2023-07-02T13:48:30;23.30;60.10
39777;DHT22;25453;48.162;14.510;2023-07-02T13:50:57;23.60;59.60
39777;DHT22;25453;48.162;14.510;2023-07-02T13:53:24;23.80;58.60
39777;DHT22;25453;48.162;14.510;2023-07-02T13:55:52;24.00;57.70
39777;DHT22;25453;48.162;14.510;2023-07-02T13:58:19;24.00;57.10
39777;DHT22;25453;48.162;14.510;2023-07-02T14:00:56;23.90;57.00
39777;DHT22;25453;48.162;14.510;2023-07-02T14:03:24;23.90;56.70
39777;DHT22;25453;48.162;14.510;2023-07-02T14:05:51;23.90;56.40
39777;DHT22;25453;48.162;14.510;2023-07-02T14:08:18;23.90;56.40
39777;DHT22;25453;48.162;14.510;2023-07-02T14:10:46;23.90;56.50
39777;DHT22;25453;48.162;14.510;2023-07-02T14:13:13;24.00;56.20
39777;DHT22;25453;48.162;14.510;2023-07-02T14:15:40;24.10;55.80
39777;DHT22;25453;48.162;14.510;2023-07-02T14:18:07;24.20;55.70
39777;DHT22;25453;48.162;14.510;2023-07-02T14:20:35;24.30;55.30
39777;DHT22;25453;48.162;14.510;2023-07-02T14:23:02;24.40;55.30
39777;DHT22;25453;48.162;14.510;2023-07-02T14:25:29;24.50;55.20
39777;DHT22;25453;48.162;14.510;2023-07-02T14:28:08;24.70;54.70
39777;DHT22;25453;48.162;14.510;2023-07-02T14:30:36;24.70;54.40
39777;DHT22;25453;48.162;14.510;2023-07-02T14:33:04;24.70;54.40
39777;DHT22;25453;48.162;14.510;2023-07-02T14:35:31;24.70;54.30
39777;DHT22;25453;48.162;14.510;2023-07-02T14:37:58;24.80;54.30
39777;DHT22;25453;48.162;14.510;2023-07-02T14:40:26;24.90;54.00
39777;DHT22;25453;48.162;14.510;2023-07-02T14:42:53;25.00;53.70
39777;DHT22;25453;48.162;14.510;2023-07-02T14:45:20;25.10;53.20
39777;DHT22;25453;48.162;14.510;2023-07-02T14:47:47;25.20;53.30
39777;DHT22;25453;48.162;14.510;2023-07-02T14:50:15;25.30;52.80
39777;DHT22;25453;48.162;14.510;2023-07-02T14:52:45;25.30;52.60
39777;DHT22;25453;48.162;14.510;2023-07-02T14:55:12;25.30;52.40
39777;DHT22;25453;48.162;14.510;2023-07-02T14:57:40;25.30;52.30
39777;DHT22;25453;48.162;14.510;2023-07-02T15:00:08;25.30;52.40
39777;DHT22;25453;48.162;14.510;2023-07-02T15:02:35;25.30;52.10
39777;DHT22;25453;48.162;14.510;2023-07-02T15:05:03;25.30;51.60
39777;DHT22;25453;48.162;14.510;2023-07-02T15:07:31;25.20;51.40
39777;DHT22;25453;48.162;14.510;2023-07-02T15:09:58;25.10;51.30
39777;DHT22;25453;48.162;14.510;2023-07-02T15:12:26;25.00;51.70
39777;DHT22;25453;48.162;14.510;2023-07-02T15:14:53;25.00;51.90
39777;DHT22;25453;48.162;14.510;2023-07-02T15:17:21;24.90;52.10
39777;DHT22;25453;48.162;14.510;2023-07-02T15:19:48;24.80;52.40
39777;DHT22;25453;48.162;14.510;2023-07-02T15:22:15;24.70;52.40
39777;DHT22;25453;48.162;14.510;2023-07-02T15:24:42;24.60;52.60
39777;DHT22;25453;48.162;14.510;2023-07-02T15:27:09;24.60;52.80
39777;DHT22;25453;48.162;14.510;2023-07-02T15:29:37;24.50;53.00
39777;DHT22;25453;48.162;14.510;2023-07-02T15:32:04;24.40;53.20